Time;durP1;ratioP1;P1;durP2;ratioP2;P2;SDS_P1;SDS_P2;PMS_P1;PMS_P2;Temp;Humidity;BMP_temperature;BMP_pressure;BME280_temperature;BME280_humidity;BME280_pressure;Samples;Min_cycle;Max_cycle;Signal;HPM_P1;HPM_P2
2021/12/10 00:01:37;;;;;;;;;;;3.10;99.90;;;;;;5069245;28;19915;-73
2021/12/10 00:04:04;;;;;;;;;;;3.10;99.90;;;;;;5070999;28;19974;-73
2021/12/10 00:06:32;;;;;;;;;;;3.10;99.90;;;;;;5070970;28;19908;-75
2021/12/10 00:09:00;;;;;;;;;;;3.10;99.90;;;;;;5068704;28;19908;-72
2021/12/10 00:11:35;;;;;;;;;;;3.10;99.90;;;;;;5069340;28;19916;-74
2021/12/10 00:14:00;;;;;;;;;;;3.20;99.90;;;;;;5069133;28;20355;-74
2021/12/10 00:16:26;;;;;;;;;;;3.20;99.90;;;;;;5070757;28;19954;-73
2021/12/10 00:19:08;;;;;;;;;;;3.20;99.90;;;;;;5070681;28;19990;-73
2021/12/10 00:21:35;;;;;;;;;;;3.20;99.90;;;;;;5069324;28;20306;-73
2021/12/10 00:24:01;;;;;;;;;;;3.20;99.90;;;;;;5070767;28;19909;-73
2021/12/10 00:26:27;;;;;;;;;;;3.20;99.90;;;;;;5070720;28;20466;-77
2021/12/10 00:29:01;;;;;;;;;;;3.20;99.90;;;;;;5070362;28;20007;-73
2021/12/10 00:31:43;;;;;;;;;;;3.20;99.90;;;;;;5069057;28;19913;-73
2021/12/10 00:34:09;;;;;;;;;;;3.20;99.90;;;;;;5069077;28;19915;-74
2021/12/10 00:36:36;;;;;;;;;;;3.30;99.90;;;;;;5070588;28;20365;-75
2021/12/10 00:39:13;;;;;;;;;;;3.30;99.90;;;;;;5072572;28;20315;-73
2021/12/10 00:41:39;;;;;;;;;;;3.30;99.90;;;;;;5073096;28;19915;-74
2021/12/10 00:44:05;;;;;;;;;;;3.40;99.90;;;;;;5072602;28;19912;-75
2021/12/10 00:46:31;;;;;;;;;;;3.40;99.90;;;;;;5072805;28;20364;-74
2021/12/10 00:48:57;;;;;;;;;;;3.40;99.90;;;;;;5072129;28;20510;-74
2021/12/10 00:51:23;;;;;;;;;;;3.40;99.90;;;;;;5072678;28;20007;-74
2021/12/10 00:53:48;;;;;;;;;;;3.50;99.90;;;;;;5079081;28;20383;-75
2021/12/10 00:56:15;;;;;;;;;;;3.50;99.90;;;;;;5076428;28;20358;-73
2021/12/10 00:58:40;;;;;;;;;;;3.50;99.90;;;;;;5074279;28;19932;-74
2021/12/10 01:01:08;;;;;;;;;;;3.50;99.90;;;;;;5073991;28;20386;-74
2021/12/10 01:03:37;;;;;;;;;;;3.60;99.90;;;;;;5073832;28;19923;-74
2021/12/10 01:06:05;;;;;;;;;;;3.60;99.90;;;;;;5072180;28;20263;-74
2021/12/10 01:08:32;;;;;;;;;;;3.60;99.90;;;;;;5072172;28;20000;-74
2021/12/10 01:11:00;;;;;;;;;;;3.70;99.90;;;;;;5073667;28;19912;-74
2021/12/10 01:13:30;;;;;;;;;;;3.80;99.90;;;;;;5073828;28;19908;-74
2021/12/10 01:24:16;;;;;;;;;;;3.80;99.90;;;;;;5069654;28;19994;-74
2021/12/10 01:29:12;;;;;;;;;;;3.80;99.90;;;;;;5073640;28;19943;-73
2021/12/10 01:31:38;;;;;;;;;;;3.80;99.90;;;;;;5072163;28;19978;-75
2021/12/10 01:34:05;;;;;;;;;;;3.90;99.90;;;;;;5073433;28;19915;-74
2021/12/10 01:36:31;;;;;;;;;;;3.90;99.90;;;;;;5073191;28;20003;-74
2021/12/10 01:38:57;;;;;;;;;;;4.00;99.90;;;;;;5073254;28;19998;-73
2021/12/10 01:41:25;;;;;;;;;;;3.90;99.90;;;;;;5073140;28;19912;-74
2021/12/10 01:43:52;;;;;;;;;;;4.00;99.90;;;;;;5071682;28;20359;-74
2021/12/10 01:46:24;;;;;;;;;;;4.00;99.90;;;;;;5071818;28;19954;-73
2021/12/10 01:48:51;;;;;;;;;;;4.10;99.90;;;;;;5072358;28;19944;-73
2021/12/10 01:51:19;;;;;;;;;;;4.10;99.90;;;;;;5071702;28;20383;-74
2021/12/10 01:53:46;;;;;;;;;;;4.10;99.90;;;;;;5072964;28;19912;-74
2021/12/10 01:56:14;;;;;;;;;;;4.10;99.90;;;;;;5071546;28;19909;-74
2021/12/10 01:58:39;;;;;;;;;;;4.10;99.90;;;;;;5073092;28;20364;-75
2021/12/10 02:01:10;;;;;;;;;;;4.10;99.90;;;;;;5072885;28;19908;-74
2021/12/10 02:03:36;;;;;;;;;;;4.20;99.90;;;;;;5072841;28;19931;-73
2021/12/10 02:06:02;;;;;;;;;;;4.30;99.90;;;;;;5072573;28;19959;-74
2021/12/10 02:08:28;;;;;;;;;;;4.30;99.90;;;;;;5072713;28;19940;-74
2021/12/10 02:10:53;;;;;;;;;;;4.30;99.90;;;;;;5072504;28;19920;-75
2021/12/10 02:13:19;;;;;;;;;;;4.40;99.90;;;;;;5072635;28;19912;-74
2021/12/10 02:15:45;;;;;;;;;;;4.40;99.90;;;;;;5071226;28;19920;-74
2021/12/10 02:18:12;;;;;;;;;;;4.40;99.90;;;;;;5072588;28;19953;-75
2021/12/10 02:20:56;;;;;;;;;;;4.50;99.90;;;;;;5070677;28;19908;-74
2021/12/10 02:23:22;;;;;;;;;;;4.50;99.90;;;;;;5072289;28;19908;-76
2021/12/10 02:25:48;;;;;;;;;;;4.50;99.90;;;;;;5070915;28;20328;-74
2021/12/10 02:28:15;;;;;;;;;;;4.50;99.90;;;;;;5072268;28;20023;-74
2021/12/10 02:30:41;;;;;;;;;;;4.50;99.90;;;;;;5070610;28;19958;-76
2021/12/10 02:33:07;;;;;;;;;;;4.60;99.90;;;;;;5072409;28;20427;-74
2021/12/10 02:35:34;;;;;;;;;;;4.60;99.90;;;;;;5063256;28;19999;-74
2021/12/10 02:37:59;;;;;;;;;;;4.60;99.90;;;;;;5059901;28;19947;-73
2021/12/10 02:40:26;;;;;;;;;;;4.60;99.90;;;;;;5068607;28;19955;-74
2021/12/10 02:42:52;;;;;;;;;;;4.60;99.90;;;;;;5070723;28;19918;-74
2021/12/10 02:45:19;;;;;;;;;;;4.60;99.90;;;;;;5070370;28;19908;-74
2021/12/10 02:47:45;;;;;;;;;;;4.60;99.90;;;;;;5071844;28;20007;-74
2021/12/10 02:50:12;;;;;;;;;;;4.60;99.90;;;;;;5070063;28;19930;-74
2021/12/10 02:52:38;;;;;;;;;;;4.60;99.90;;;;;;5070675;28;19904;-74
2021/12/10 02:55:05;;;;;;;;;;;4.60;99.90;;;;;;5071526;28;20287;-74
2021/12/10 02:57:31;;;;;;;;;;;4.60;99.90;;;;;;5070071;28;19904;-74
2021/12/10 02:59:56;;;;;;;;;;;4.60;99.90;;;;;;5069728;28;19908;-75
2021/12/10 03:02:24;;;;;;;;;;;4.60;99.90;;;;;;5071314;28;20265;-73
2021/12/10 03:04:50;;;;;;;;;;;4.60;99.90;;;;;;5070049;28;19938;-74
2021/12/10 03:07:18;;;;;;;;;;;4.60;99.90;;;;;;5070432;28;19904;-74
2021/12/10 03:09:50;;;;;;;;;;;4.70;99.90;;;;;;5071215;28;19920;-75
2021/12/10 03:12:17;;;;;;;;;;;4.60;99.90;;;;;;5070189;28;20283;-76
2021/12/10 03:14:45;;;;;;;;;;;4.70;99.90;;;;;;5071808;28;20354;-73
2021/12/10 03:17:12;;;;;;;;;;;4.60;99.90;;;;;;5071326;28;19919;-74
2021/12/10 03:19:38;;;;;;;;;;;4.60;99.90;;;;;;5071835;28;19908;-75
2021/12/10 03:22:05;;;;;;;;;;;4.70;99.90;;;;;;5071310;28;19919;-75
2021/12/10 03:24:31;;;;;;;;;;;4.70;99.90;;;;;;5071637;28;19913;-76
2021/12/10 03:26:58;;;;;;;;;;;4.70;99.90;;;;;;5071244;28;19909;-74
2021/12/10 03:29:25;;;;;;;;;;;4.70;99.90;;;;;;5071544;28;19916;-77
2021/12/10 03:31:52;;;;;;;;;;;4.70;99.90;;;;;;5070022;28;19908;-76
2021/12/10 03:34:18;;;;;;;;;;;4.70;99.90;;;;;;5071474;28;19909;-75
2021/12/10 03:36:46;;;;;;;;;;;4.70;99.90;;;;;;5071073;28;19919;-75
2021/12/10 03:39:16;;;;;;;;;;;4.70;99.90;;;;;;5069622;28;20344;-75
2021/12/10 03:41:42;;;;;;;;;;;4.70;99.90;;;;;;5071399;28;20007;-75
2021/12/10 03:44:07;;;;;;;;;;;4.70;99.90;;;;;;5071407;28;19908;-75
2021/12/10 03:46:33;;;;;;;;;;;4.70;99.90;;;;;;5071222;28;20368;-75
2021/12/10 03:49:03;;;;;;;;;;;4.80;99.90;;;;;;5070895;28;19916;-75
2021/12/10 03:51:29;;;;;;;;;;;4.80;99.90;;;;;;5071458;28;19913;-75
2021/12/10 03:53:55;;;;;;;;;;;4.70;99.90;;;;;;5071093;28;19916;-74
2021/12/10 03:56:21;;;;;;;;;;;4.70;99.90;;;;;;5069513;28;20252;-74
2021/12/10 03:58:47;;;;;;;;;;;4.70;99.90;;;;;;5071112;28;19919;-74
2021/12/10 04:01:14;;;;;;;;;;;4.70;99.90;;;;;;5071227;28;19912;-74
2021/12/10 04:03:41;;;;;;;;;;;4.70;99.90;;;;;;5069653;28;19912;-74
2021/12/10 04:06:07;;;;;;;;;;;4.80;99.90;;;;;;5069004;28;19913;-74
2021/12/10 04:08:32;;;;;;;;;;;4.80;99.90;;;;;;5071010;28;19908;-74
2021/12/10 04:10:58;;;;;;;;;;;4.80;99.90;;;;;;5070716;28;20169;-74
2021/12/10 04:13:24;;;;;;;;;;;4.80;99.90;;;;;;5072885;28;19908;-73
2021/12/10 04:15:50;;;;;;;;;;;4.80;99.90;;;;;;5073563;28;19915;-75
2021/12/10 04:18:16;;;;;;;;;;;4.80;99.90;;;;;;5074885;28;20322;-75
2021/12/10 04:20:43;;;;;;;;;;;4.80;99.90;;;;;;5073405;28;19916;-73
2021/12/10 04:23:10;;;;;;;;;;;4.80;99.90;;;;;;5073652;28;20015;-76
2021/12/10 04:25:36;;;;;;;;;;;4.90;99.90;;;;;;5074583;28;19909;-74
2021/12/10 04:28:07;;;;;;;;;;;4.90;99.90;;;;;;5074968;28;20010;-74
2021/12/10 04:30:39;;;;;;;;;;;4.90;99.90;;;;;;5072892;28;19927;-73
2021/12/10 04:33:05;;;;;;;;;;;4.80;99.90;;;;;;5073192;28;19908;-73
2021/12/10 04:35:31;;;;;;;;;;;4.80;99.90;;;;;;5074148;28;20038;-73
2021/12/10 04:37:56;;;;;;;;;;;4.80;99.90;;;;;;5073102;28;19995;-73
2021/12/10 04:40:22;;;;;;;;;;;4.80;99.90;;;;;;5074054;28;19915;-75
2021/12/10 04:42:48;;;;;;;;;;;4.90;99.90;;;;;;5072949;28;19966;-74
2021/12/10 04:45:16;;;;;;;;;;;4.80;99.90;;;;;;5074493;28;19912;-74
2021/12/10 04:47:42;;;;;;;;;;;4.80;99.90;;;;;;5073153;28;19957;-73
2021/12/10 04:50:08;;;;;;;;;;;4.80;99.90;;;;;;5073898;28;20362;-73
2021/12/10 04:52:34;;;;;;;;;;;4.80;99.90;;;;;;5074338;28;19915;-76
2021/12/10 04:55:00;;;;;;;;;;;4.80;99.90;;;;;;5074135;28;20387;-74
2021/12/10 04:57:26;;;;;;;;;;;4.80;99.90;;;;;;5073262;28;19947;-75
2021/12/10 04:59:52;;;;;;;;;;;4.70;99.90;;;;;;5073834;28;19947;-75
2021/12/10 05:02:17;;;;;;;;;;;4.70;99.90;;;;;;5072643;28;19919;-74
2021/12/10 05:04:45;;;;;;;;;;;4.70;99.90;;;;;;5060384;28;19918;-75
2021/12/10 05:07:12;;;;;;;;;;;4.80;99.90;;;;;;5054040;28;20380;-75
2021/12/10 05:09:38;;;;;;;;;;;4.70;99.90;;;;;;5064116;28;19912;-73
2021/12/10 05:12:04;;;;;;;;;;;4.60;99.90;;;;;;5073879;28;20339;-74
2021/12/10 05:14:30;;;;;;;;;;;4.70;99.90;;;;;;5073771;28;20267;-74
2021/12/10 05:17:00;;;;;;;;;;;4.60;99.90;;;;;;5074000;28;19908;-73
2021/12/10 05:19:27;;;;;;;;;;;4.60;99.90;;;;;;5073698;28;19931;-74
2021/12/10 05:21:53;;;;;;;;;;;4.70;99.90;;;;;;5072292;28;20039;-73
2021/12/10 05:24:19;;;;;;;;;;;4.60;99.90;;;;;;5071368;28;19955;-73
2021/12/10 05:26:46;;;;;;;;;;;4.60;99.90;;;;;;5072151;28;19912;-75
2021/12/10 05:29:11;;;;;;;;;;;4.60;99.90;;;;;;5073611;28;20255;-75
2021/12/10 05:31:39;;;;;;;;;;;4.60;99.90;;;;;;5072192;28;19908;-75
2021/12/10 05:34:05;;;;;;;;;;;4.60;99.90;;;;;;5073012;28;20386;-75
2021/12/10 05:36:31;;;;;;;;;;;4.60;99.90;;;;;;5071765;28;20360;-75
2021/12/10 05:38:57;;;;;;;;;;;4.60;99.90;;;;;;5079374;28;19915;-75
2021/12/10 05:41:23;;;;;;;;;;;4.70;99.90;;;;;;5093447;28;19908;-74
2021/12/10 05:43:48;;;;;;;;;;;4.30;99.90;;;;;;5088695;28;19934;-75
2021/12/10 05:46:16;;;;;;;;;;;4.80;99.90;;;;;;5073253;28;19908;-75
2021/12/10 05:48:41;;;;;;;;;;;4.80;99.90;;;;;;5071211;28;19920;-75
2021/12/10 05:51:07;;;;;;;;;;;4.80;99.90;;;;;;5072504;28;20276;-75
2021/12/10 05:53:33;;;;;;;;;;;4.90;99.90;;;;;;5073565;28;19915;-76
2021/12/10 05:55:58;;;;;;;;;;;4.80;99.90;;;;;;5071842;28;19908;-75
2021/12/10 05:58:24;;;;;;;;;;;4.90;99.90;;;;;;5073327;28;19908;-75
2021/12/10 06:00:52;;;;;;;;;;;4.90;99.90;;;;;;5071233;28;20418;-74
2021/12/10 06:03:17;;;;;;;;;;;4.90;99.90;;;;;;5072808;28;19909;-76
2021/12/10 06:05:44;;;;;;;;;;;4.90;99.90;;;;;;5072483;28;19916;-75
2021/12/10 06:08:10;;;;;;;;;;;4.90;99.90;;;;;;5072808;28;20003;-74
2021/12/10 06:10:36;;;;;;;;;;;4.90;99.90;;;;;;5070794;28;20284;-74
2021/12/10 06:13:02;;;;;;;;;;;5.00;99.90;;;;;;5073138;28;19916;-75
2021/12/10 06:15:28;;;;;;;;;;;5.00;99.90;;;;;;5072145;28;19916;-75
2021/12/10 06:17:54;;;;;;;;;;;5.00;99.90;;;;;;5071134;28;19912;-73
2021/12/10 06:20:24;;;;;;;;;;;5.00;99.90;;;;;;5071992;28;19973;-74
2021/12/10 06:22:51;;;;;;;;;;;5.00;99.90;;;;;;5070910;28;19916;-74
2021/12/10 06:25:16;;;;;;;;;;;5.10;99.90;;;;;;5072378;28;20374;-73
2021/12/10 06:27:44;;;;;;;;;;;5.00;99.90;;;;;;5072102;28;19904;-73
2021/12/10 06:30:14;;;;;;;;;;;5.00;99.90;;;;;;5070327;28;19923;-74
2021/12/10 06:32:41;;;;;;;;;;;5.00;99.90;;;;;;5072325;28;19905;-74
2021/12/10 06:35:08;;;;;;;;;;;5.10;99.90;;;;;;5070507;28;20012;-74
2021/12/10 06:37:35;;;;;;;;;;;5.10;99.90;;;;;;5072255;28;19921;-75
2021/12/10 06:40:00;;;;;;;;;;;5.20;99.90;;;;;;5070578;28;19924;-75
2021/12/10 06:42:26;;;;;;;;;;;5.20;99.90;;;;;;5070697;28;19904;-75
2021/12/10 06:44:51;;;;;;;;;;;5.20;99.90;;;;;;5071731;28;19912;-75
2021/12/10 06:47:17;;;;;;;;;;;5.20;99.90;;;;;;5070693;28;20352;-75
2021/12/10 06:49:43;;;;;;;;;;;5.20;99.90;;;;;;5070163;28;19923;-75
2021/12/10 06:52:08;;;;;;;;;;;5.20;99.90;;;;;;5070724;28;19912;-74
2021/12/10 06:54:34;;;;;;;;;;;5.30;99.90;;;;;;5071952;28;19974;-74
2021/12/10 06:56:59;;;;;;;;;;;5.30;99.90;;;;;;5072257;28;19912;-74
2021/12/10 06:59:26;;;;;;;;;;;5.30;99.90;;;;;;5071620;28;19950;-75
2021/12/10 07:01:52;;;;;;;;;;;5.30;99.90;;;;;;5071446;28;19909;-74
2021/12/10 07:04:19;;;;;;;;;;;5.30;99.90;;;;;;5071870;28;20374;-75
2021/12/10 07:06:46;;;;;;;;;;;5.30;99.90;;;;;;5070273;28;20477;-75
2021/12/10 07:09:16;;;;;;;;;;;5.40;99.90;;;;;;5071820;28;20003;-74
2021/12/10 07:11:42;;;;;;;;;;;5.30;99.90;;;;;;5070291;28;19916;-75
2021/12/10 07:14:08;;;;;;;;;;;5.30;99.90;;;;;;5071174;28;19908;-74
2021/12/10 07:16:33;;;;;;;;;;;5.30;99.90;;;;;;5070125;28;19912;-74
2021/12/10 07:19:00;;;;;;;;;;;5.30;99.90;;;;;;5069751;28;19908;-74
2021/12/10 07:21:26;;;;;;;;;;;5.40;99.90;;;;;;5069850;28;20351;-75
2021/12/10 07:23:52;;;;;;;;;;;5.40;99.90;;;;;;5071505;28;19908;-74
2021/12/10 07:26:18;;;;;;;;;;;5.50;99.90;;;;;;5071156;28;19911;-75
2021/12/10 07:28:44;;;;;;;;;;;5.40;99.90;;;;;;5069687;28;19919;-74
2021/12/10 07:31:10;;;;;;;;;;;5.40;99.90;;;;;;5071026;28;19912;-74
2021/12/10 07:33:36;;;;;;;;;;;5.50;99.90;;;;;;5071218;28;19912;-76
2021/12/10 07:36:02;;;;;;;;;;;5.50;99.90;;;;;;5069665;28;20382;-74
2021/12/10 07:38:27;;;;;;;;;;;5.50;99.90;;;;;;5070835;28;19924;-73
2021/12/10 07:40:53;;;;;;;;;;;5.50;99.90;;;;;;5069703;28;19923;-75
2021/12/10 07:43:19;;;;;;;;;;;5.50;99.90;;;;;;5069422;28;19958;-75
2021/12/10 07:45:49;;;;;;;;;;;5.60;99.90;;;;;;5070557;28;19912;-74
2021/12/10 07:48:18;;;;;;;;;;;5.60;99.90;;;;;;5070657;28;20320;-75
2021/12/10 07:50:50;;;;;;;;;;;5.70;99.90;;;;;;5069728;28;19917;-75
2021/12/10 07:53:18;;;;;;;;;;;5.80;99.90;;;;;;5069616;28;19904;-65
2021/12/10 07:55:43;;;;;;;;;;;5.80;99.90;;;;;;5070430;28;19912;-68
2021/12/10 07:58:09;;;;;;;;;;;6.00;99.90;;;;;;5070812;28;19908;-69
2021/12/10 08:00:36;;;;;;;;;;;6.00;99.90;;;;;;5069999;28;19912;-68
2021/12/10 08:03:02;;;;;;;;;;;6.10;99.90;;;;;;5070862;28;19905;-66
2021/12/10 08:05:27;;;;;;;;;;;6.10;99.90;;;;;;5059961;28;20356;-70
2021/12/10 08:07:53;;;;;;;;;;;6.20;99.90;;;;;;5060359;28;19915;-70
2021/12/10 08:10:19;;;;;;;;;;;6.30;99.90;;;;;;5051899;28;19917;-69
2021/12/10 08:12:45;;;;;;;;;;;6.50;99.90;;;;;;5057123;28;20348;-70
2021/12/10 08:15:10;;;;;;;;;;;6.50;99.90;;;;;;5060080;28;19916;-69
2021/12/10 08:17:36;;;;;;;;;;;6.50;99.90;;;;;;5052366;28;21456;-68
2021/12/10 08:20:04;;;;;;;;;;;6.60;99.90;;;;;;5055434;28;19917;-70
2021/12/10 08:22:30;;;;;;;;;;;6.60;99.90;;;;;;5054531;28;19992;-70
2021/12/10 08:24:56;;;;;;;;;;;6.70;99.90;;;;;;5053195;28;20011;-68
2021/12/10 08:27:21;;;;;;;;;;;6.70;99.90;;;;;;5051799;28;20002;-66
2021/12/10 08:29:48;;;;;;;;;;;6.80;99.90;;;;;;5049208;28;19927;-67
2021/12/10 08:32:19;;;;;;;;;;;6.70;99.90;;;;;;5053922;28;20031;-67
2021/12/10 08:34:45;;;;;;;;;;;6.80;99.90;;;;;;5051754;28;20232;-68
2021/12/10 08:37:11;;;;;;;;;;;6.90;99.90;;;;;;5054752;28;19925;-68
2021/12/10 08:39:36;;;;;;;;;;;6.90;99.90;;;;;;5054365;28;19913;-67
2021/12/10 08:42:03;;;;;;;;;;;6.90;99.90;;;;;;5050951;28;20002;-66
2021/12/10 08:44:29;;;;;;;;;;;6.80;99.90;;;;;;5053766;28;19965;-67
2021/12/10 08:46:54;;;;;;;;;;;6.80;99.90;;;;;;5056695;28;19920;-67
2021/12/10 08:49:20;;;;;;;;;;;6.80;99.90;;;;;;5058238;28;20312;-66
2021/12/10 08:51:48;;;;;;;;;;;6.80;99.90;;;;;;5050888;28;19923;-68
2021/12/10 08:54:14;;;;;;;;;;;6.70;99.90;;;;;;5054338;28;19947;-67
2021/12/10 08:56:40;;;;;;;;;;;6.60;99.90;;;;;;5053187;28;19932;-67
2021/12/10 08:59:07;;;;;;;;;;;6.60;99.90;;;;;;5055896;28;19912;-68
2021/12/10 09:01:34;;;;;;;;;;;6.50;99.90;;;;;;5059440;28;19960;-66
2021/12/10 09:04:01;;;;;;;;;;;6.40;99.90;;;;;;5060022;28;19930;-67
2021/12/10 09:06:29;;;;;;;;;;;6.50;99.90;;;;;;5055274;28;19991;-67
2021/12/10 09:08:55;;;;;;;;;;;6.40;99.90;;;;;;5060181;28;20716;-67
2021/12/10 09:11:20;;;;;;;;;;;6.50;99.90;;;;;;5054964;28;19967;-67
2021/12/10 09:13:46;;;;;;;;;;;6.40;99.90;;;;;;5053084;28;19912;-69
2021/12/10 09:16:21;;;;;;;;;;;6.40;99.90;;;;;;5054408;28;19974;-68
2021/12/10 09:18:47;;;;;;;;;;;6.30;99.90;;;;;;5056441;28;19963;-68
2021/12/10 09:21:12;;;;;;;;;;;6.30;99.90;;;;;;5055746;28;19970;-67
2021/12/10 09:23:38;;;;;;;;;;;6.30;99.90;;;;;;5056878;28;19912;-69
2021/12/10 09:26:06;;;;;;;;;;;6.30;99.90;;;;;;5058873;28;20015;-67
2021/12/10 09:28:31;;;;;;;;;;;6.30;99.90;;;;;;5056569;28;19943;-67
2021/12/10 09:30:58;;;;;;;;;;;6.20;99.90;;;;;;5051511;28;19924;-67
2021/12/10 09:33:24;;;;;;;;;;;6.30;99.90;;;;;;5051134;28;19923;-66
2021/12/10 09:35:50;;;;;;;;;;;6.30;99.90;;;;;;5052132;28;19912;-69
2021/12/10 09:38:19;;;;;;;;;;;6.30;99.90;;;;;;5048618;28;19951;-67
2021/12/10 09:40:47;;;;;;;;;;;6.30;99.90;;;;;;5049209;28;20003;-66
2021/12/10 09:43:12;;;;;;;;;;;6.90;99.90;;;;;;5055516;28;19908;-66
2021/12/10 09:45:39;;;;;;;;;;;6.40;99.90;;;;;;5056493;28;20390;-69
2021/12/10 09:48:07;;;;;;;;;;;6.40;99.90;;;;;;5057053;28;19966;-64
2021/12/10 09:50:34;;;;;;;;;;;6.40;99.90;;;;;;5056137;28;19928;-65
2021/12/10 09:53:03;;;;;;;;;;;6.40;99.90;;;;;;5054066;28;19908;-68
2021/12/10 09:55:29;;;;;;;;;;;6.40;99.90;;;;;;5058231;28;19970;-67
2021/12/10 09:57:55;;;;;;;;;;;6.40;99.90;;;;;;5055330;28;19910;-68
2021/12/10 10:00:32;;;;;;;;;;;6.40;99.90;;;;;;5056028;28;19966;-65
2021/12/10 10:02:58;;;;;;;;;;;6.40;99.90;;;;;;5058517;28;19908;-66
2021/12/10 10:05:27;;;;;;;;;;;6.40;99.90;;;;;;5055002;28;19927;-66
2021/12/10 10:07:57;;;;;;;;;;;6.40;99.90;;;;;;5057524;28;20272;-66
2021/12/10 10:10:24;;;;;;;;;;;6.40;99.90;;;;;;5055147;28;19970;-66
2021/12/10 10:12:51;;;;;;;;;;;6.50;99.90;;;;;;5059106;28;19939;-65
2021/12/10 10:15:19;;;;;;;;;;;6.50;99.90;;;;;;5055501;28;19920;-73
2021/12/10 10:17:45;;;;;;;;;;;6.60;99.90;;;;;;5057419;28;20004;-73
2021/12/10 10:20:13;;;;;;;;;;;6.60;99.90;;;;;;5055080;28;21759;-73
2021/12/10 10:22:39;;;;;;;;;;;6.50;99.90;;;;;;5059395;28;19913;-72
2021/12/10 10:25:08;;;;;;;;;;;6.50;99.90;;;;;;5051429;28;20003;-65
2021/12/10 10:27:36;;;;;;;;;;;6.40;99.90;;;;;;5048200;28;19917;-66
2021/12/10 10:30:07;;;;;;;;;;;6.40;99.90;;;;;;5052389;28;20042;-66
2021/12/10 10:32:34;;;;;;;;;;;6.40;99.90;;;;;;5056208;28;19916;-66
2021/12/10 10:35:08;;;;;;;;;;;6.40;99.90;;;;;;5051651;28;20331;-66
2021/12/10 10:37:34;;;;;;;;;;;6.40;99.90;;;;;;5051676;28;20036;-66
2021/12/10 10:40:00;;;;;;;;;;;6.50;99.90;;;;;;5053145;28;19927;-67
2021/12/10 10:42:28;;;;;;;;;;;6.50;99.90;;;;;;5052853;28;20093;-67
2021/12/10 10:44:55;;;;;;;;;;;6.50;99.90;;;;;;5055136;28;19928;-67
2021/12/10 10:47:23;;;;;;;;;;;6.60;99.90;;;;;;5059414;28;20410;-66
2021/12/10 10:49:50;;;;;;;;;;;6.50;99.90;;;;;;5061454;28;19924;-65
2021/12/10 10:52:19;;;;;;;;;;;6.50;99.90;;;;;;5059173;28;19916;-74
2021/12/10 10:54:45;;;;;;;;;;;6.50;99.90;;;;;;5059565;28;19916;-75
2021/12/10 10:57:14;;;;;;;;;;;6.60;99.90;;;;;;5057972;28;19920;-73
2021/12/10 10:59:40;;;;;;;;;;;6.50;99.90;;;;;;5058266;28;19946;-74
2021/12/10 11:02:08;;;;;;;;;;;6.60;99.90;;;;;;5055187;28;19912;-70
2021/12/10 11:04:36;;;;;;;;;;;6.50;99.90;;;;;;5056992;28;19969;-69
2021/12/10 11:07:07;;;;;;;;;;;6.50;99.90;;;;;;5059762;28;20070;-72
2021/12/10 11:09:34;;;;;;;;;;;6.40;99.90;;;;;;5045615;28;21387;-70
2021/12/10 11:12:02;;;;;;;;;;;6.50;99.90;;;;;;5052160;28;19995;-68
2021/12/10 11:14:30;;;;;;;;;;;6.50;99.90;;;;;;5056835;28;20391;-68
2021/12/10 11:17:02;;;;;;;;;;;6.60;99.90;;;;;;5056017;28;19912;-68
2021/12/10 11:19:29;;;;;;;;;;;6.50;99.90;;;;;;5055918;28;20362;-64
2021/12/10 11:21:56;;;;;;;;;;;6.50;99.90;;;;;;5054321;28;19920;-67
2021/12/10 11:24:24;;;;;;;;;;;6.50;99.90;;;;;;5051382;28;20004;-67
2021/12/10 11:26:55;;;;;;;;;;;6.50;99.90;;;;;;5055869;28;19928;-67
2021/12/10 11:29:29;;;;;;;;;;;6.50;99.90;;;;;;5051744;28;20618;-74
2021/12/10 11:32:02;;;;;;;;;;;6.50;99.90;;;;;;5055425;28;19970;-72
2021/12/10 11:34:43;;;;;;;;;;;6.50;99.90;;;;;;5061190;28;19919;-74
2021/12/10 11:37:10;;;;;;;;;;;6.50;99.90;;;;;;5052560;28;19913;-78
2021/12/10 11:39:46;;;;;;;;;;;6.50;99.90;;;;;;5052927;28;19924;-70
2021/12/10 11:42:39;;;;;;;;;;;6.50;99.90;;;;;;5060346;28;19921;-75
2021/12/10 11:45:30;;;;;;;;;;;6.50;99.90;;;;;;5055477;28;19928;-75
2021/12/10 11:48:05;;;;;;;;;;;6.60;99.90;;;;;;5052962;28;19917;-76
2021/12/10 11:50:32;;;;;;;;;;;6.60;99.90;;;;;;5049840;28;19924;-73
2021/12/10 11:53:10;;;;;;;;;;;6.70;99.90;;;;;;5057394;28;20029;-79
2021/12/10 11:55:36;;;;;;;;;;;6.70;99.90;;;;;;5057170;28;20386;-78
2021/12/10 11:58:03;;;;;;;;;;;6.60;99.90;;;;;;5057793;28;19913;-76
2021/12/10 12:00:32;;;;;;;;;;;6.60;99.90;;;;;;5053129;28;20001;-75
2021/12/10 12:03:05;;;;;;;;;;;6.70;99.90;;;;;;5054660;28;19920;-74
2021/12/10 12:05:33;;;;;;;;;;;6.70;99.90;;;;;;5053923;28;19941;-72
2021/12/10 12:08:04;;;;;;;;;;;6.80;99.90;;;;;;5048671;28;20629;-72
2021/12/10 12:10:42;;;;;;;;;;;6.80;99.90;;;;;;5052415;28;19916;-74
2021/12/10 12:15:45;;;;;;;;;;;6.80;99.90;;;;;;5054990;28;19909;-75
2021/12/10 12:18:16;;;;;;;;;;;6.90;99.90;;;;;;5056085;28;19916;-73
2021/12/10 12:20:47;;;;;;;;;;;6.90;99.90;;;;;;5057305;28;19919;-79
2021/12/10 12:26:01;;;;;;;;;;;6.90;99.90;;;;;;5056607;28;19923;-74
2021/12/10 12:28:28;;;;;;;;;;;6.90;99.90;;;;;;5052733;28;19927;-72
2021/12/10 12:30:56;;;;;;;;;;;7.00;99.90;;;;;;5049297;28;19924;-69
2021/12/10 12:33:24;;;;;;;;;;;7.00;99.90;;;;;;5053635;28;19913;-70
2021/12/10 12:35:51;;;;;;;;;;;7.00;99.90;;;;;;5055441;28;19917;-66
2021/12/10 12:38:21;;;;;;;;;;;7.10;99.90;;;;;;5055646;28;20049;-65
2021/12/10 12:40:57;;;;;;;;;;;7.10;99.90;;;;;;5057909;28;19916;-66
2021/12/10 12:43:23;;;;;;;;;;;6.90;99.90;;;;;;5059659;28;19920;-67
2021/12/10 12:45:48;;;;;;;;;;;7.00;99.90;;;;;;5056311;28;19916;-69
2021/12/10 12:48:15;;;;;;;;;;;7.00;99.90;;;;;;5058068;28;19959;-67
2021/12/10 12:50:43;;;;;;;;;;;7.00;99.90;;;;;;5061665;28;19920;-68
2021/12/10 12:53:15;;;;;;;;;;;6.90;99.90;;;;;;5053040;28;19916;-66
2021/12/10 12:55:47;;;;;;;;;;;6.90;99.90;;;;;;5053065;28;19992;-67
2021/12/10 12:58:16;;;;;;;;;;;6.90;99.90;;;;;;5057053;28;20416;-67
2021/12/10 13:00:48;;;;;;;;;;;6.90;99.90;;;;;;5058538;28;19917;-70
2021/12/10 13:03:36;;;;;;;;;;;6.90;99.90;;;;;;5060631;28;19927;-69
2021/12/10 13:06:13;;;;;;;;;;;6.90;99.90;;;;;;5056858;28;19988;-69
2021/12/10 13:08:42;;;;;;;;;;;6.90;99.90;;;;;;5064684;28;19913;-70
2021/12/10 13:11:19;;;;;;;;;;;6.90;99.90;;;;;;5059540;28;19913;-72
2021/12/10 13:13:51;;;;;;;;;;;6.90;99.90;;;;;;5060370;28;19923;-69
2021/12/10 13:16:37;;;;;;;;;;;6.90;99.90;;;;;;5062255;28;19955;-68
2021/12/10 13:19:04;;;;;;;;;;;6.90;99.90;;;;;;5056950;28;19916;-68
2021/12/10 13:21:30;;;;;;;;;;;6.90;99.90;;;;;;5060756;28;19956;-68
2021/12/10 13:23:56;;;;;;;;;;;7.00;99.90;;;;;;5061837;28;19958;-68
2021/12/10 13:26:21;;;;;;;;;;;6.90;99.90;;;;;;5059743;28;19921;-67
2021/12/10 13:28:47;;;;;;;;;;;6.90;99.90;;;;;;5055317;28;19931;-74
2021/12/10 13:31:14;;;;;;;;;;;6.90;99.90;;;;;;5064602;28;19920;-67
2021/12/10 13:33:42;;;;;;;;;;;7.00;99.90;;;;;;5061913;28;19931;-67
2021/12/10 13:36:09;;;;;;;;;;;7.00;99.90;;;;;;5062573;28;19908;-67
2021/12/10 13:38:35;;;;;;;;;;;7.00;99.90;;;;;;5065270;28;19927;-68
2021/12/10 13:41:02;;;;;;;;;;;7.00;99.90;;;;;;5063783;28;19912;-67
2021/12/10 13:43:29;;;;;;;;;;;7.00;99.90;;;;;;5062636;28;19954;-66
2021/12/10 13:46:07;;;;;;;;;;;7.00;99.90;;;;;;5067799;28;19981;-67
2021/12/10 13:48:39;;;;;;;;;;;7.00;99.90;;;;;;5058627;28;19936;-65
2021/12/10 13:51:04;;;;;;;;;;;7.00;99.90;;;;;;5067313;28;19938;-66
2021/12/10 13:53:30;;;;;;;;;;;7.10;99.90;;;;;;5064314;28;19916;-65
2021/12/10 13:55:58;;;;;;;;;;;7.10;99.90;;;;;;5060154;28;19967;-69
2021/12/10 13:58:50;;;;;;;;;;;7.10;99.90;;;;;;5065510;28;19923;-68
2021/12/10 14:01:18;;;;;;;;;;;7.20;99.90;;;;;;5054496;28;20871;-67
2021/12/10 14:03:49;;;;;;;;;;;7.20;99.90;;;;;;5066400;28;19920;-67
2021/12/10 14:06:42;;;;;;;;;;;7.20;99.90;;;;;;5062745;28;19913;-67
2021/12/10 14:09:12;;;;;;;;;;;7.20;99.90;;;;;;5059792;28;19916;-68
2021/12/10 14:11:54;;;;;;;;;;;7.20;99.90;;;;;;5060612;28;19922;-67
2021/12/10 14:14:28;;;;;;;;;;;7.20;99.90;;;;;;5059009;28;20024;-67
2021/12/10 14:16:59;;;;;;;;;;;7.20;99.90;;;;;;5055167;28;19912;-66
2021/12/10 14:19:43;;;;;;;;;;;7.20;99.90;;;;;;5063897;28;19955;-67
2021/12/10 14:22:10;;;;;;;;;;;7.30;99.90;;;;;;5062751;28;19995;-66
2021/12/10 14:24:43;;;;;;;;;;;7.20;99.90;;;;;;5058264;28;20256;-66
2021/12/10 14:27:12;;;;;;;;;;;7.20;99.90;;;;;;5053638;28;20283;-66
2021/12/10 14:29:38;;;;;;;;;;;7.30;99.90;;;;;;5057791;28;19920;-67
2021/12/10 14:32:18;;;;;;;;;;;7.30;99.90;;;;;;5056539;28;19931;-67
2021/12/10 14:34:59;;;;;;;;;;;7.30;99.90;;;;;;5056214;28;19947;-67
2021/12/10 14:37:25;;;;;;;;;;;7.30;99.90;;;;;;5057426;28;20323;-68
2021/12/10 14:40:10;;;;;;;;;;;7.40;99.90;;;;;;5058304;28;19920;-67
2021/12/10 14:42:35;;;;;;;;;;;7.30;99.90;;;;;;5058581;28;19935;-67
2021/12/10 14:45:03;;;;;;;;;;;7.30;99.90;;;;;;5055544;28;20007;-67
2021/12/10 14:47:29;;;;;;;;;;;7.30;99.90;;;;;;5056623;28;19916;-67
2021/12/10 14:49:58;;;;;;;;;;;7.30;99.90;;;;;;5062584;28;19920;-68
2021/12/10 14:52:26;;;;;;;;;;;7.30;99.90;;;;;;5055845;28;19916;-67